createdAt,value
2019-05-21T00:00:02.709Z,19.40
2019-05-21T00:01:02.673Z,21.50
2019-05-21T00:02:02.664Z,19.90
2019-05-21T00:03:02.693Z,19.60
2019-05-21T00:04:02.686Z,20.20
2019-05-21T00:05:02.626Z,22.70
2019-05-21T00:06:02.619Z,21.60
2019-05-21T00:07:02.671Z,22.00
2019-05-21T00:08:02.610Z,23.30
2019-05-21T00:09:02.593Z,20.80
2019-05-21T00:10:02.605Z,23.50
2019-05-21T00:11:02.565Z,20.40
2019-05-21T00:12:03.021Z,23.20
2019-05-21T00:13:02.544Z,21.80
2019-05-21T00:14:02.580Z,23.60
2019-05-21T00:15:02.522Z,23.10
2019-05-21T00:16:02.521Z,22.90
2019-05-21T00:17:02.503Z,21.80
2019-05-21T00:18:02.487Z,26.90
2019-05-21T00:19:02.472Z,22.20
2019-05-21T00:20:02.518Z,23.80
2019-05-21T00:21:02.454Z,26.50
2019-05-21T00:22:02.480Z,21.70
2019-05-21T00:23:02.440Z,23.60
2019-05-21T00:24:02.421Z,21.50
2019-05-21T00:25:02.445Z,23.50
2019-05-21T00:26:02.419Z,22.00
2019-05-21T00:27:02.421Z,22.40
2019-05-21T00:28:02.373Z,21.20
2019-05-21T00:29:02.366Z,23.40
2019-05-21T00:30:02.353Z,22.30
2019-05-21T00:31:02.348Z,22.20
2019-05-21T00:32:02.357Z,22.30
2019-05-21T00:33:02.340Z,21.90
2019-05-21T00:34:02.307Z,22.50
2019-05-21T00:35:02.319Z,24.90
2019-05-21T00:36:02.286Z,24.10
2019-05-21T00:37:02.278Z,23.40
2019-05-21T00:38:02.310Z,27.70
2019-05-21T00:39:02.259Z,24.40
2019-05-21T00:40:02.260Z,26.20
2019-05-21T00:41:02.286Z,26.10
2019-05-21T00:42:02.264Z,25.20
2019-05-21T00:43:02.213Z,24.30
2019-05-21T00:44:02.201Z,27.10
2019-05-21T00:45:02.209Z,29.40
2019-05-21T00:46:02.178Z,28.90
2019-05-21T00:47:02.298Z,28.10
2019-05-21T00:48:05.574Z,30.60
2019-05-21T00:49:02.204Z,29.50
2019-05-21T00:50:02.200Z,27.80
2019-05-21T00:51:02.158Z,30.10
2019-05-21T00:52:08.252Z,29.80
2019-05-21T00:53:03.099Z,32.40
2019-05-21T00:54:02.094Z,30.80
2019-05-21T00:55:02.076Z,32.20
2019-05-21T00:56:02.088Z,31.00
2019-05-21T00:57:02.056Z,31.20
2019-05-21T00:58:02.077Z,32.40
2019-05-21T00:59:02.039Z,31.20
2019-05-21T01:00:02.138Z,33.60
2019-05-21T01:01:02.027Z,34.10
2019-05-21T01:02:02.161Z,32.50
2019-05-21T01:03:01.992Z,32.90
2019-05-21T01:04:02.010Z,35.70
2019-05-21T01:05:01.969Z,37.30
2019-05-21T01:06:01.954Z,33.50
2019-05-21T01:07:02.105Z,35.10
2019-05-21T01:08:01.930Z,34.10
2019-05-21T01:09:01.928Z,34.70
2019-05-21T01:10:01.999Z,33.70
2019-05-21T01:11:01.901Z,31.70
2019-05-21T01:12:01.952Z,32.00
2019-05-21T01:13:01.891Z,35.50
2019-05-21T01:14:01.887Z,34.70
2019-05-21T01:15:01.859Z,33.20
2019-05-21T01:16:01.873Z,35.10
2019-05-21T01:17:01.836Z,34.00
2019-05-21T01:18:01.839Z,37.20
2019-05-21T01:19:01.809Z,34.60
2019-05-21T01:20:01.802Z,36.10
2019-05-21T01:21:01.796Z,38.10
2019-05-21T01:22:01.807Z,36.60
2019-05-21T01:23:01.766Z,35.40
2019-05-21T01:24:01.785Z,40.90
2019-05-21T01:25:01.747Z,38.90
2019-05-21T01:26:01.735Z,38.90
2019-05-21T01:27:01.734Z,38.30
2019-05-21T01:28:01.756Z,38.90
2019-05-21T01:29:01.735Z,39.60
2019-05-21T01:30:02.159Z,37.80
2019-05-21T01:31:01.677Z,40.60
2019-05-21T01:32:01.672Z,42.90
2019-05-21T01:33:01.666Z,41.60
2019-05-21T01:34:01.644Z,40.70
2019-05-21T01:35:16.022Z,41.10
2019-05-21T01:36:02.623Z,41.90
2019-05-21T01:37:01.610Z,44.10
2019-05-21T01:38:01.606Z,43.40
2019-05-21T01:39:01.598Z,43.70
2019-05-21T01:40:01.597Z,44.50
2019-05-21T01:41:01.596Z,45.10
2019-05-21T01:42:01.556Z,44.20
2019-05-21T01:43:03.457Z,46.80
2019-05-21T01:44:01.578Z,48.10
2019-05-21T01:45:01.631Z,43.00
2019-05-21T01:46:01.532Z,47.20
2019-05-21T01:47:01.500Z,42.60
2019-05-21T01:48:01.519Z,45.60
2019-05-21T01:49:01.477Z,45.80
2019-05-21T01:50:01.477Z,44.40
2019-05-21T01:51:01.466Z,51.40
2019-05-21T01:52:01.458Z,48.00
2019-05-21T01:53:01.460Z,49.90
2019-05-21T01:54:01.427Z,52.30
2019-05-21T01:55:01.412Z,50.20
2019-05-21T01:56:01.401Z,47.30
2019-05-21T01:57:01.417Z,54.10
2019-05-21T01:58:01.394Z,48.20
2019-05-21T01:59:01.403Z,48.20
2019-05-21T02:00:01.357Z,49.30
2019-05-21T02:01:01.582Z,50.20
2019-05-21T02:02:01.333Z,51.50
2019-05-21T02:03:01.344Z,46.40
2019-05-21T02:04:01.311Z,51.20
2019-05-21T02:05:01.335Z,51.60
2019-05-21T02:06:01.291Z,53.00
2019-05-21T02:07:01.282Z,52.90
2019-05-21T02:08:01.267Z,47.20
2019-05-21T02:09:01.280Z,49.40
2019-05-21T02:10:01.252Z,50.30
2019-05-21T02:11:01.233Z,50.20
2019-05-21T02:12:01.285Z,49.60
2019-05-21T02:13:01.212Z,49.80
2019-05-21T02:14:01.201Z,51.50
2019-05-21T02:15:01.210Z,49.60
2019-05-21T02:16:01.180Z,46.10
2019-05-21T02:17:01.170Z,47.40
2019-05-21T02:18:01.211Z,47.90
2019-05-21T02:19:01.153Z,46.80
2019-05-21T02:20:01.143Z,47.60
2019-05-21T02:21:01.137Z,44.80
2019-05-21T02:22:01.112Z,48.50
2019-05-21T02:23:01.104Z,45.70
2019-05-21T02:24:01.135Z,45.00
2019-05-21T02:25:01.104Z,45.50
2019-05-21T02:26:01.084Z,44.40
2019-05-21T02:27:01.059Z,44.30
2019-05-21T02:28:01.046Z,44.70
2019-05-21T02:29:01.049Z,45.30
2019-05-21T02:30:01.029Z,42.70
2019-05-21T02:31:01.028Z,44.80
2019-05-21T02:32:01.041Z,44.70
2019-05-21T02:33:00.991Z,44.20
2019-05-21T02:34:00.983Z,49.90
2019-05-21T02:35:00.972Z,44.70
2019-05-21T02:36:00.968Z,42.40
2019-05-21T02:37:00.963Z,41.70
2019-05-21T02:38:00.958Z,44.80
2019-05-21T02:39:00.929Z,39.20
2019-05-21T02:40:00.925Z,42.80
2019-05-21T02:41:00.910Z,40.90
2019-05-21T02:42:00.912Z,37.50
2019-05-21T02:43:00.883Z,40.00
2019-05-21T02:44:00.870Z,37.70
2019-05-21T02:45:00.882Z,40.10
2019-05-21T02:46:00.850Z,39.50
2019-05-21T02:47:00.837Z,39.50
2019-05-21T02:48:00.844Z,35.60
2019-05-21T02:49:00.830Z,40.30
2019-05-21T02:50:00.810Z,36.50
2019-05-21T02:51:00.794Z,37.80
2019-05-21T02:52:00.835Z,38.50
2019-05-21T02:53:00.769Z,35.60
2019-05-21T02:54:00.782Z,36.60
2019-05-21T02:55:00.752Z,35.50
2019-05-21T02:56:00.735Z,35.70
2019-05-21T02:57:00.758Z,34.80
2019-05-21T02:58:00.733Z,35.40
2019-05-21T02:59:00.700Z,36.10
2019-05-21T03:00:00.706Z,36.70
2019-05-21T03:01:00.681Z,33.50
2019-05-21T03:02:00.770Z,36.50
2019-05-21T03:03:00.659Z,36.00
2019-05-21T03:04:00.679Z,38.30
2019-05-21T03:05:00.652Z,35.40
2019-05-21T03:06:12.940Z,35.80
2019-05-21T03:07:01.613Z,32.10
2019-05-21T03:08:00.607Z,34.30
2019-05-21T03:09:00.586Z,34.90
2019-05-21T03:10:00.601Z,34.10
2019-05-21T03:11:00.610Z,32.80
2019-05-21T03:12:00.573Z,33.10
2019-05-21T03:13:00.547Z,32.70
2019-05-21T03:14:00.604Z,33.80
2019-05-21T03:15:00.527Z,34.20
2019-05-21T03:16:00.522Z,30.90
2019-05-21T03:17:00.562Z,34.70
2019-05-21T03:18:00.491Z,33.30
2019-05-21T03:19:00.569Z,32.50
2019-05-21T03:20:00.501Z,35.20
2019-05-21T03:21:00.531Z,33.10
2019-05-21T03:22:00.455Z,32.40
2019-05-21T03:23:00.434Z,32.70
2019-05-21T03:24:00.419Z,31.30
2019-05-21T03:25:02.304Z,31.30
2019-05-21T03:26:00.398Z,35.40
2019-05-21T03:27:00.396Z,30.30
2019-05-21T03:28:00.389Z,32.20
2019-05-21T03:29:00.365Z,33.00
2019-05-21T03:30:00.356Z,34.80
2019-05-21T03:31:00.383Z,33.70
2019-05-21T03:32:00.332Z,32.40
2019-05-21T03:33:00.338Z,30.90
2019-05-21T03:34:00.311Z,34.30
2019-05-21T03:35:00.308Z,37.10
2019-05-21T03:36:00.292Z,33.90
2019-05-21T03:37:00.295Z,29.90
2019-05-21T03:38:00.263Z,34.70
2019-05-21T03:39:00.273Z,31.50
2019-05-21T03:40:00.242Z,31.20
2019-05-21T03:41:00.239Z,33.30
2019-05-21T03:42:00.217Z,32.10
2019-05-21T03:43:00.229Z,34.10
2019-05-21T03:44:00.209Z,33.40
2019-05-21T03:45:01.076Z,34.80
2019-05-21T03:46:00.174Z,33.00
2019-05-21T03:47:00.168Z,32.30
2019-05-21T03:48:00.152Z,31.80
2019-05-21T03:49:00.170Z,34.00
2019-05-21T03:50:00.167Z,30.90
2019-05-21T03:51:00.131Z,32.20
2019-05-21T03:52:00.107Z,31.60
2019-05-21T03:53:00.096Z,35.70
2019-05-21T03:54:00.085Z,33.60
2019-05-21T03:55:03.084Z,32.00
2019-05-21T03:56:00.080Z,31.50
2019-05-21T03:57:00.052Z,32.60
2019-05-21T03:58:00.063Z,33.00
2019-05-21T03:59:00.030Z,33.60
2019-05-21T04:00:00.021Z,33.50
2019-05-21T04:01:00.037Z,33.90
2019-05-21T04:02:00.011Z,31.80
2019-05-21T04:02:59.987Z,32.30
2019-05-21T04:03:59.986Z,34.00
2019-05-21T04:04:59.966Z,33.70
2019-05-21T04:05:59.953Z,36.60
2019-05-21T04:06:59.986Z,35.90
2019-05-21T04:07:59.933Z,33.30
2019-05-21T04:08:59.926Z,32.70
2019-05-21T04:09:59.909Z,36.00
2019-05-21T04:10:59.901Z,36.10
2019-05-21T04:11:59.907Z,36.80
2019-05-21T04:12:59.894Z,32.10
2019-05-21T04:13:59.864Z,34.00
2019-05-21T04:14:59.856Z,36.20
2019-05-21T04:15:59.841Z,33.90
2019-05-21T04:16:59.829Z,35.40
2019-05-21T04:17:59.833Z,35.20
2019-05-21T04:18:59.843Z,34.80
2019-05-21T04:19:59.800Z,33.40
2019-05-21T04:20:59.792Z,34.70
2019-05-21T04:21:59.776Z,34.80
2019-05-21T04:22:59.784Z,33.30
2019-05-21T04:23:59.759Z,30.50
2019-05-21T04:24:59.791Z,31.00
2019-05-21T04:25:59.731Z,32.00
2019-05-21T04:26:59.739Z,32.90
2019-05-21T04:27:59.711Z,31.20
2019-05-21T04:28:59.713Z,31.30
2019-05-21T04:29:59.686Z,31.20
2019-05-21T04:30:59.714Z,32.90
2019-05-21T04:31:59.671Z,30.90
2019-05-21T04:32:59.657Z,28.80
2019-05-21T04:33:59.670Z,34.00
2019-05-21T04:34:59.665Z,30.60
2019-05-21T04:35:59.619Z,28.30
2019-05-21T04:37:10.108Z,30.00
2019-05-21T04:38:00.594Z,29.60
2019-05-21T04:38:59.601Z,29.40
2019-05-21T04:39:59.590Z,28.10
2019-05-21T04:40:59.567Z,28.80
2019-05-21T04:41:59.552Z,27.00
2019-05-21T04:43:02.207Z,25.40
2019-05-21T04:43:59.531Z,26.40
2019-05-21T04:44:59.517Z,26.20
2019-05-21T04:45:59.522Z,25.10
2019-05-21T04:46:59.496Z,27.60
2019-05-21T04:47:59.484Z,26.70
2019-05-21T04:48:59.518Z,25.70
2019-05-21T04:49:59.463Z,25.10
2019-05-21T04:50:59.450Z,25.00
2019-05-21T04:51:59.469Z,25.30
2019-05-21T04:52:59.440Z,25.10
2019-05-21T04:53:59.419Z,23.60
2019-05-21T04:54:59.433Z,23.20
2019-05-21T04:55:59.395Z,21.40
2019-05-21T04:56:59.385Z,21.70
2019-05-21T04:57:59.396Z,22.30
2019-05-21T04:58:59.366Z,21.00
2019-05-21T04:59:59.350Z,21.80
2019-05-21T05:00:59.350Z,21.30
2019-05-21T05:01:59.482Z,24.50
2019-05-21T05:02:59.316Z,22.60
2019-05-21T05:03:59.334Z,22.50
2019-05-21T05:04:59.311Z,21.90
2019-05-21T05:05:59.303Z,25.80
2019-05-21T05:06:59.272Z,23.70
2019-05-21T05:07:59.264Z,22.00
2019-05-21T05:08:59.261Z,24.80
2019-05-21T05:09:59.243Z,26.80
2019-05-21T05:10:59.227Z,24.20
2019-05-21T05:11:59.238Z,24.40
2019-05-21T05:12:59.209Z,24.90
2019-05-21T05:13:59.206Z,26.10
2019-05-21T05:14:59.195Z,25.00
2019-05-21T05:15:59.182Z,26.20
2019-05-21T05:16:59.189Z,23.90
2019-05-21T05:17:59.154Z,25.20
2019-05-21T05:18:59.143Z,23.80
2019-05-21T05:19:59.145Z,23.90
2019-05-21T05:20:59.127Z,25.00
2019-05-21T05:21:59.120Z,23.30
2019-05-21T05:22:59.098Z,21.10
2019-05-21T05:23:59.102Z,23.80
2019-05-21T05:24:59.081Z,25.00
2019-05-21T05:25:59.080Z,22.50
2019-05-21T05:26:59.058Z,22.70
2019-05-21T05:27:59.057Z,25.70
2019-05-21T05:28:59.032Z,24.40
2019-05-21T05:29:59.016Z,23.30
2019-05-21T05:30:59.019Z,20.60
2019-05-21T05:31:59.019Z,23.40
2019-05-21T05:32:58.991Z,23.90
2019-05-21T05:33:58.976Z,24.30
2019-05-21T05:34:58.964Z,22.00
2019-05-21T05:35:58.951Z,22.70
2019-05-21T05:36:58.950Z,23.00
2019-05-21T05:37:58.973Z,23.40
2019-05-21T05:38:58.920Z,22.10
2019-05-21T05:39:58.909Z,21.90
2019-05-21T05:40:58.899Z,22.80
2019-05-21T05:41:58.886Z,20.90
2019-05-21T05:42:58.888Z,23.10
2019-05-21T05:43:58.869Z,20.60
2019-05-21T05:44:58.852Z,20.30
2019-05-21T05:45:58.881Z,20.30
2019-05-21T05:46:58.839Z,18.90
2019-05-21T05:47:58.837Z,20.40
2019-05-21T05:49:01.681Z,20.80
2019-05-21T05:49:58.816Z,19.30
2019-05-21T05:50:58.784Z,20.90
2019-05-21T05:51:58.777Z,20.00
2019-05-21T05:52:58.779Z,20.30
2019-05-21T05:53:58.766Z,18.60
2019-05-21T05:54:58.746Z,20.70
2019-05-21T05:55:58.741Z,18.70
2019-05-21T05:56:58.727Z,20.10
2019-05-21T05:57:58.714Z,20.80
2019-05-21T05:58:58.699Z,19.30
2019-05-21T05:59:58.697Z,19.30
2019-05-21T06:00:58.719Z,18.60
2019-05-21T06:01:58.686Z,18.90
2019-05-21T06:02:58.652Z,17.20
2019-05-21T06:03:58.642Z,18.30
2019-05-21T06:04:58.676Z,18.30
2019-05-21T06:05:58.624Z,19.40
2019-05-21T06:06:58.661Z,18.70
2019-05-21T06:08:00.204Z,18.60
2019-05-21T06:08:58.589Z,17.30
2019-05-21T06:09:58.576Z,17.20
2019-05-21T06:10:58.581Z,17.30
2019-05-21T06:11:58.551Z,17.50
2019-05-21T06:12:58.551Z,16.70
2019-05-21T06:13:58.563Z,18.40
2019-05-21T06:14:58.520Z,16.10
2019-05-21T06:15:58.511Z,17.50
2019-05-21T06:16:58.531Z,16.70
2019-05-21T06:17:58.491Z,17.80
2019-05-21T06:18:58.479Z,18.70
2019-05-21T06:19:58.483Z,19.10
2019-05-21T06:20:58.474Z,19.00
2019-05-21T06:21:58.458Z,18.60
2019-05-21T06:22:58.437Z,17.10
2019-05-21T06:23:58.420Z,16.70
2019-05-21T06:24:58.410Z,16.30
2019-05-21T06:25:58.410Z,16.20
2019-05-21T06:26:58.404Z,17.50
2019-05-21T06:27:58.477Z,18.20
2019-05-21T06:28:58.375Z,16.10
2019-05-21T06:29:58.357Z,16.20
2019-05-21T06:30:58.364Z,14.80
2019-05-21T06:31:58.335Z,16.50
2019-05-21T06:32:58.459Z,17.00
2019-05-21T06:33:58.313Z,18.60
2019-05-21T06:34:58.309Z,18.40
2019-05-21T06:35:58.294Z,19.50
2019-05-21T06:36:58.292Z,17.40
2019-05-21T06:37:58.273Z,18.00
2019-05-21T06:38:58.256Z,18.30
2019-05-21T06:39:58.268Z,20.10
2019-05-21T06:40:58.236Z,18.30
2019-05-21T06:41:58.237Z,19.40
2019-05-21T06:42:58.213Z,18.40
2019-05-21T06:43:58.197Z,17.40
2019-05-21T06:44:58.218Z,18.20
2019-05-21T06:45:58.173Z,17.00
2019-05-21T06:46:58.160Z,18.30
2019-05-21T06:47:58.165Z,17.90
2019-05-21T06:48:58.140Z,18.40
2019-05-21T06:49:58.267Z,18.20
2019-05-21T06:50:58.959Z,17.20
2019-05-21T06:51:58.127Z,17.70
2019-05-21T06:52:58.097Z,17.40
2019-05-21T06:53:58.106Z,17.60
2019-05-21T06:54:58.074Z,17.40
2019-05-21T06:55:58.065Z,17.80
2019-05-21T06:56:58.055Z,17.90
2019-05-21T06:57:58.048Z,17.40
2019-05-21T06:58:58.044Z,16.80
2019-05-21T06:59:58.037Z,18.70
2019-05-21T07:00:58.008Z,18.30
2019-05-21T07:01:58.007Z,17.60
2019-05-21T07:02:58.000Z,20.30
2019-05-21T07:03:57.981Z,17.20
2019-05-21T07:04:57.992Z,16.90
2019-05-21T07:05:59.423Z,19.00
2019-05-21T07:06:57.950Z,18.20
2019-05-21T07:07:57.947Z,19.60
2019-05-21T07:08:57.936Z,18.20
2019-05-21T07:09:57.961Z,18.00
2019-05-21T07:10:57.920Z,19.00
2019-05-21T07:11:57.902Z,17.60
2019-05-21T07:12:57.876Z,19.50
2019-05-21T07:13:57.881Z,19.20
2019-05-21T07:14:57.877Z,19.40
2019-05-21T07:15:57.928Z,17.40
2019-05-21T07:16:57.868Z,18.10
2019-05-21T07:17:57.844Z,18.00
2019-05-21T07:18:57.812Z,20.60
2019-05-21T07:19:57.825Z,18.60
2019-05-21T07:20:57.785Z,19.20
2019-05-21T07:22:11.440Z,17.20
2019-05-21T07:22:58.892Z,20.90
2019-05-21T07:23:57.751Z,18.10
2019-05-21T07:24:57.754Z,17.50
2019-05-21T07:25:57.728Z,18.50
2019-05-21T07:26:57.718Z,17.90
2019-05-21T07:27:57.938Z,18.10
2019-05-21T07:28:57.927Z,19.20
2019-05-21T07:29:57.683Z,17.70
2019-05-21T07:30:57.684Z,19.90
2019-05-21T07:31:57.662Z,18.90
2019-05-21T07:32:57.895Z,20.60
2019-05-21T07:33:57.668Z,20.20
2019-05-21T07:34:57.639Z,20.30
2019-05-21T07:35:57.629Z,20.90
2019-05-21T07:36:57.608Z,20.30
2019-05-21T07:37:57.597Z,20.30
2019-05-21T07:38:57.594Z,21.80
2019-05-21T07:39:57.582Z,22.20
2019-05-21T07:40:57.578Z,20.10
2019-05-21T07:41:57.589Z,19.50
2019-05-21T07:42:57.556Z,19.30
2019-05-21T07:43:57.540Z,19.50
2019-05-21T07:44:57.526Z,20.00
2019-05-21T07:45:57.509Z,20.60
2019-05-21T07:46:57.509Z,25.40
2019-05-21T07:47:57.501Z,21.00
2019-05-21T07:48:57.492Z,20.20
2019-05-21T07:49:57.479Z,20.30
2019-05-21T07:50:57.457Z,20.90
2019-05-21T07:51:57.447Z,21.20
2019-05-21T07:52:57.433Z,19.90
2019-05-21T07:53:57.420Z,20.50
2019-05-21T07:54:57.412Z,19.40
2019-05-21T07:55:57.422Z,20.90
2019-05-21T07:56:57.385Z,19.40
2019-05-21T07:57:57.378Z,23.00
2019-05-21T07:58:57.399Z,19.70
2019-05-21T07:59:57.365Z,22.70
2019-05-21T08:01:01.037Z,21.00
2019-05-21T08:01:57.343Z,20.80
2019-05-21T08:02:57.366Z,22.40
2019-05-21T08:03:57.329Z,19.80
2019-05-21T08:04:57.308Z,19.30
2019-05-21T08:05:57.319Z,20.20
2019-05-21T08:06:57.293Z,21.30
2019-05-21T08:07:57.261Z,20.60
2019-05-21T08:09:12.729Z,21.20
2019-05-21T08:09:58.298Z,20.60
2019-05-21T08:10:57.267Z,22.00
2019-05-21T08:11:57.274Z,21.50
2019-05-21T08:12:57.214Z,22.40
2019-05-21T08:13:57.202Z,20.00
2019-05-21T08:14:57.239Z,19.40
2019-05-21T08:15:57.201Z,19.40
2019-05-21T08:16:57.167Z,18.80
2019-05-21T08:17:57.169Z,18.80
2019-05-21T08:18:57.140Z,19.60
2019-05-21T08:20:08.614Z,20.10
2019-05-21T08:20:58.120Z,18.10
2019-05-21T08:21:57.108Z,19.70
2019-05-21T08:22:57.097Z,19.80
2019-05-21T08:23:57.097Z,18.70
2019-05-21T08:24:57.086Z,19.90
2019-05-21T08:25:57.066Z,19.00
2019-05-21T08:26:57.071Z,19.50
2019-05-21T08:27:57.047Z,19.70
2019-05-21T08:28:57.037Z,20.80
2019-05-21T08:29:57.049Z,19.30
2019-05-21T08:30:57.031Z,17.50
2019-05-21T08:31:57.032Z,17.50
2019-05-21T08:32:57.026Z,17.80
2019-05-21T08:33:56.977Z,19.40
2019-05-21T08:34:56.971Z,19.20
2019-05-21T08:35:56.969Z,20.60
2019-05-21T08:36:56.965Z,20.00
2019-05-21T08:37:56.954Z,22.20
2019-05-21T08:38:56.962Z,19.30
2019-05-21T08:39:56.921Z,19.50
2019-05-21T08:40:56.937Z,19.30
2019-05-21T08:41:56.901Z,19.10
2019-05-21T08:42:56.874Z,19.80
2019-05-21T08:43:56.978Z,22.20
2019-05-21T08:44:56.910Z,19.60
2019-05-21T08:45:56.859Z,20.80
2019-05-21T08:46:56.848Z,19.80
2019-05-21T08:47:56.845Z,18.30
2019-05-21T08:48:56.815Z,20.70
2019-05-21T08:49:56.819Z,24.60
2019-05-21T08:50:56.806Z,21.60
2019-05-21T08:51:56.791Z,22.50
2019-05-21T08:52:56.764Z,22.80
2019-05-21T08:53:56.754Z,21.90
2019-05-21T08:54:56.817Z,21.40
2019-05-21T08:55:56.763Z,21.20
2019-05-21T08:56:56.759Z,19.60
2019-05-21T08:58:06.947Z,20.40
2019-05-21T08:58:57.703Z,23.30
2019-05-21T08:59:56.688Z,22.20
2019-05-21T09:00:56.701Z,21.90
2019-05-21T09:01:59.137Z,20.30
2019-05-21T09:02:56.655Z,23.30
2019-05-21T09:03:56.669Z,22.80
2019-05-21T09:04:56.635Z,17.40
2019-05-21T09:05:56.660Z,20.70
2019-05-21T09:06:56.640Z,20.60
2019-05-21T09:07:56.619Z,22.10
2019-05-21T09:08:56.606Z,22.60
2019-05-21T09:09:56.596Z,22.20
2019-05-21T09:10:56.595Z,23.00
2019-05-21T09:11:56.555Z,24.80
2019-05-21T09:12:56.558Z,22.70
2019-05-21T09:13:56.588Z,24.00
2019-05-21T09:14:56.531Z,21.20
2019-05-21T09:15:56.513Z,24.10
2019-05-21T09:16:56.530Z,24.00
2019-05-21T09:17:56.534Z,24.50
2019-05-21T09:18:56.483Z,27.20
2019-05-21T09:19:56.467Z,25.60
2019-05-21T09:20:56.515Z,24.70
2019-05-21T09:21:56.450Z,27.00
2019-05-21T09:22:56.461Z,25.50
2019-05-21T09:23:56.422Z,25.50
2019-05-21T09:24:56.409Z,26.60
2019-05-21T09:25:56.398Z,26.50
2019-05-21T09:26:56.389Z,28.90
2019-05-21T09:27:56.402Z,27.80
2019-05-21T09:28:56.376Z,25.50
2019-05-21T09:29:56.380Z,27.40
2019-05-21T09:30:56.346Z,27.70
2019-05-21T09:31:56.360Z,27.50
2019-05-21T09:32:56.321Z,26.90
2019-05-21T09:33:56.321Z,27.90
2019-05-21T09:34:56.299Z,28.20
2019-05-21T09:35:56.290Z,27.50
2019-05-21T09:36:56.280Z,27.40
2019-05-21T09:37:56.415Z,26.30
2019-05-21T09:38:56.253Z,25.30
2019-05-21T09:39:56.264Z,27.40
2019-05-21T09:40:56.233Z,27.60
2019-05-21T09:41:56.221Z,27.60
2019-05-21T09:42:56.225Z,26.10
2019-05-21T09:43:56.206Z,25.50
2019-05-21T09:44:56.205Z,24.50
2019-05-21T09:45:56.175Z,27.10
2019-05-21T09:46:56.164Z,26.90
2019-05-21T09:47:56.182Z,25.30
2019-05-21T09:48:56.313Z,23.50
2019-05-21T09:49:56.143Z,27.20
2019-05-21T09:50:56.174Z,26.50
2019-05-21T09:51:56.111Z,25.10
2019-05-21T09:52:56.113Z,23.00
2019-05-21T09:53:56.090Z,24.40
2019-05-21T09:54:56.104Z,27.60
2019-05-21T09:55:56.073Z,25.60
2019-05-21T09:56:56.117Z,23.10
2019-05-21T09:57:56.044Z,24.40
2019-05-21T09:58:56.034Z,21.20
2019-05-21T09:59:56.036Z,22.80
2019-05-21T10:00:56.013Z,22.10
2019-05-21T10:01:55.999Z,22.30
2019-05-21T10:02:56.004Z,20.20
2019-05-21T10:03:55.976Z,22.60
2019-05-21T10:04:55.968Z,23.40
2019-05-21T10:05:55.990Z,21.00
2019-05-21T10:06:55.947Z,21.70
2019-05-21T10:07:55.931Z,22.70
2019-05-21T10:08:55.945Z,22.40
2019-05-21T10:09:55.911Z,21.50
2019-05-21T10:10:55.902Z,24.30
2019-05-21T10:11:55.939Z,22.20
2019-05-21T10:12:55.879Z,20.60
2019-05-21T10:13:55.881Z,21.20
2019-05-21T10:14:55.869Z,19.20
2019-05-21T10:15:56.933Z,23.10
2019-05-21T10:16:56.835Z,20.90
2019-05-21T10:17:55.821Z,20.80
2019-05-21T10:18:55.810Z,20.30
2019-05-21T10:19:58.836Z,21.90
2019-05-21T10:20:55.810Z,18.20
2019-05-21T10:21:57.137Z,19.80
2019-05-21T10:22:55.765Z,16.60
2019-05-21T10:23:55.758Z,17.30
2019-05-21T10:24:55.765Z,18.20
2019-05-21T10:25:55.735Z,16.40
2019-05-21T10:26:55.755Z,18.80
2019-05-21T10:27:55.715Z,18.40
2019-05-21T10:28:55.700Z,16.50
2019-05-21T10:29:55.698Z,16.40
2019-05-21T10:30:55.689Z,15.70
2019-05-21T10:31:55.666Z,16.80
2019-05-21T10:32:55.672Z,16.80
2019-05-21T10:33:55.656Z,17.00
2019-05-21T10:34:55.632Z,17.20
2019-05-21T10:35:55.637Z,15.80
2019-05-21T10:36:55.610Z,15.80
2019-05-21T10:37:55.705Z,14.60
2019-05-21T10:38:55.601Z,14.40
2019-05-21T10:39:55.578Z,13.80
2019-05-21T10:40:55.594Z,13.80
2019-05-21T10:41:55.557Z,13.10
2019-05-21T10:42:55.542Z,14.80
2019-05-21T10:43:55.534Z,17.00
2019-05-21T10:44:55.558Z,14.00
2019-05-21T10:45:55.523Z,15.00
2019-05-21T10:46:55.513Z,15.30
2019-05-21T10:47:55.487Z,13.10
2019-05-21T10:48:55.479Z,13.30
2019-05-21T10:49:55.466Z,12.30
2019-05-21T10:50:55.493Z,14.80
2019-05-21T10:51:55.456Z,15.10
2019-05-21T10:52:55.454Z,12.50
2019-05-21T10:53:55.423Z,12.30
2019-05-21T10:54:55.411Z,13.30
2019-05-21T10:55:55.401Z,13.20
2019-05-21T10:56:55.396Z,12.10
2019-05-21T10:57:55.377Z,12.80
2019-05-21T10:58:55.394Z,13.50
2019-05-21T10:59:55.359Z,12.40
2019-05-21T11:00:55.476Z,12.60
2019-05-21T11:01:55.337Z,12.40
2019-05-21T11:02:55.341Z,12.00
2019-05-21T11:03:55.314Z,12.20
2019-05-21T11:04:55.317Z,10.90
2019-05-21T11:06:09.050Z,12.60
2019-05-21T11:06:56.279Z,13.30
2019-05-21T11:07:55.266Z,11.60
2019-05-21T11:08:55.288Z,11.10
2019-05-21T11:09:55.311Z,11.10
2019-05-21T11:10:55.258Z,12.10
2019-05-21T11:11:55.222Z,12.10
2019-05-21T11:12:55.214Z,11.50
2019-05-21T11:13:55.200Z,11.10
2019-05-21T11:14:55.191Z,11.60
2019-05-21T11:15:55.218Z,11.70
2019-05-21T11:16:55.194Z,12.00
2019-05-21T11:18:09.796Z,12.10
2019-05-21T11:18:56.143Z,12.00
2019-05-21T11:19:55.139Z,12.10
2019-05-21T11:20:55.136Z,12.00
2019-05-21T11:21:55.142Z,12.40
2019-05-21T11:22:58.180Z,12.50
2019-05-21T11:23:55.154Z,11.80
2019-05-21T11:24:55.082Z,12.10
2019-05-21T11:25:55.086Z,11.70
2019-05-21T11:26:55.059Z,12.50
2019-05-21T11:27:55.062Z,12.30
2019-05-21T11:28:55.055Z,11.40
2019-05-21T11:29:55.025Z,11.70
2019-05-21T11:30:55.012Z,12.10
2019-05-21T11:31:57.435Z,12.70
2019-05-21T11:32:54.992Z,11.50
2019-05-21T11:33:54.986Z,11.50
2019-05-21T11:34:54.975Z,13.20
2019-05-21T11:35:54.972Z,11.70
2019-05-21T11:36:54.950Z,12.40
2019-05-21T11:37:54.947Z,11.60
2019-05-21T11:38:54.927Z,11.80
2019-05-21T11:39:54.927Z,11.40
2019-05-21T11:40:54.951Z,11.30
2019-05-21T11:41:54.892Z,12.00
2019-05-21T11:42:54.882Z,11.50
2019-05-21T11:43:54.870Z,11.10
2019-05-21T11:44:54.867Z,11.60
2019-05-21T11:45:54.899Z,11.40
2019-05-21T11:46:54.836Z,11.30
2019-05-21T11:47:55.032Z,12.20
2019-05-21T11:48:54.819Z,11.70
2019-05-21T11:49:54.809Z,11.40
2019-05-21T11:50:54.795Z,12.20
2019-05-21T11:51:54.819Z,11.40
2019-05-21T11:52:54.776Z,11.10
2019-05-21T11:53:54.765Z,12.10
2019-05-21T11:54:55.991Z,12.30
2019-05-21T11:55:54.741Z,11.30
2019-05-21T11:56:54.734Z,11.70
2019-05-21T11:57:54.740Z,11.80
2019-05-21T11:58:54.737Z,11.20
2019-05-21T11:59:54.693Z,12.00
2019-05-21T12:00:54.692Z,11.30
2019-05-21T12:01:54.676Z,11.50
2019-05-21T12:02:54.661Z,11.70
2019-05-21T12:03:54.653Z,11.20
2019-05-21T12:04:54.719Z,12.10
2019-05-21T12:05:54.672Z,10.80
2019-05-21T12:06:54.619Z,11.50
2019-05-21T12:07:54.607Z,12.20
2019-05-21T12:08:57.156Z,11.20
2019-05-21T12:09:54.587Z,11.90
2019-05-21T12:10:54.586Z,11.80
2019-05-21T12:11:54.575Z,11.00
2019-05-21T12:12:54.553Z,11.50
2019-05-21T12:13:54.540Z,11.90
2019-05-21T12:14:54.539Z,12.00
2019-05-21T12:15:54.535Z,11.70
2019-05-21T12:16:54.508Z,11.40
2019-05-21T12:17:54.580Z,10.90
2019-05-21T12:19:02.081Z,11.10
2019-05-21T12:19:54.477Z,11.50
2019-05-21T12:20:54.477Z,10.20
2019-05-21T12:21:54.453Z,11.10
2019-05-21T12:22:54.463Z,11.00
2019-05-21T12:23:54.441Z,11.60
2019-05-21T12:24:54.420Z,10.70
2019-05-21T12:25:54.431Z,11.20
2019-05-21T12:26:54.421Z,10.80
2019-05-21T12:27:54.423Z,10.60
2019-05-21T12:28:54.379Z,10.20
2019-05-21T12:29:54.364Z,10.20
2019-05-21T12:30:54.466Z,9.40
2019-05-21T12:32:03.387Z,10.20
2019-05-21T12:32:54.340Z,9.60
2019-05-21T12:33:54.319Z,10.30
2019-05-21T12:34:54.316Z,10.70
2019-05-21T12:35:54.300Z,10.00
2019-05-21T12:36:54.302Z,10.90
2019-05-21T12:37:54.339Z,10.10
2019-05-21T12:39:13.813Z,10.10
2019-05-21T12:41:08.566Z,10.40
2019-05-21T12:43:21.151Z,9.70
2019-05-21T12:44:21.137Z,10.40
2019-05-21T12:45:21.168Z,10.50
2019-05-21T12:46:21.123Z,11.10
2019-05-21T12:47:21.101Z,12.10
2019-05-21T12:48:21.099Z,11.50
2019-05-21T12:49:21.091Z,13.10
2019-05-21T12:50:21.082Z,12.30
2019-05-21T12:51:21.059Z,12.80
2019-05-21T12:52:21.050Z,12.30
2019-05-21T12:53:21.038Z,12.00
2019-05-21T12:54:21.022Z,12.50